Time;durP1;ratioP1;P1;durP2;ratioP2;P2;SDS_P1;SDS_P2;PMS_P1;PMS_P2;Temp;Humidity;BMP_temperature;BMP_pressure;BME280_temperature;BME280_humidity;BME280_pressure;Samples;Min_cycle;Max_cycle;Signal;HPM_P1;HPM_P2
2023/12/14 00:00:39;;;;;;;7.38;4.10;;;;;;;;;;10584831;27;20672;-73
2023/12/14 00:05:42;;;;;;;8.10;3.42;;;;;;;;;;10601100;27;20043;-73
2023/12/14 00:10:47;;;;;;;5.43;2.90;;;;;;;;;;10600913;27;20035;-73
2023/12/14 00:15:50;;;;;;;7.50;3.88;;;;;;;;;;10610066;27;20644;-73
2023/12/14 00:20:53;;;;;;;8.70;3.92;;;;;;;;;;10589181;27;20042;-73
2023/12/14 00:25:58;;;;;;;7.10;3.45;;;;;;;;;;10581860;27;20521;-72
2023/12/14 00:31:01;;;;;;;9.35;3.72;;;;;;;;;;10602198;27;20069;-72
2023/12/14 00:36:05;;;;;;;8.90;4.97;;;;;;;;;;10590530;28;20039;-73
2023/12/14 00:41:10;;;;;;;9.27;5.30;;;;;;;;;;10602006;28;20082;-73
2023/12/14 00:46:14;;;;;;;10.85;4.82;;;;;;;;;;10598186;28;20069;-73
2023/12/14 00:51:17;;;;;;;8.00;4.15;;;;;;;;;;10600710;28;20046;-73
2023/12/14 00:56:22;;;;;;;6.10;3.45;;;;;;;;;;10580606;28;20054;-73
2023/12/14 01:01:25;;;;;;;6.10;3.60;;;;;;;;;;10591990;28;20556;-73
2023/12/14 01:06:28;;;;;;;6.85;3.33;;;;;;;;;;10595729;28;20047;-73
2023/12/14 01:11:33;;;;;;;7.00;3.10;;;;;;;;;;10600762;28;20042;-73
2023/12/14 01:16:36;;;;;;;6.35;2.90;;;;;;;;;;10602412;28;20049;-72
2023/12/14 01:21:40;;;;;;;5.03;2.72;;;;;;;;;;10597734;28;20047;-72
2023/12/14 01:26:44;;;;;;;5.90;3.10;;;;;;;;;;10601451;28;20051;-72
2023/12/14 01:31:48;;;;;;;4.80;2.72;;;;;;;;;;10587417;28;20280;-73
2023/12/14 01:36:51;;;;;;;4.30;2.20;;;;;;;;;;10600154;28;20109;-72
2023/12/14 01:41:55;;;;;;;5.38;2.38;;;;;;;;;;10596271;27;20039;-72
2023/12/14 01:46:59;;;;;;;4.72;2.25;;;;;;;;;;10609083;27;20035;-73
2023/12/14 01:52:02;;;;;;;6.72;2.53;;;;;;;;;;10609332;27;20451;-73
2023/12/14 01:57:07;;;;;;;3.85;2.15;;;;;;;;;;10606981;27;20551;-73
2023/12/14 02:02:10;;;;;;;5.45;2.83;;;;;;;;;;10607504;27;20039;-72
2023/12/14 02:07:13;;;;;;;6.45;2.13;;;;;;;;;;10601961;27;20053;-73
2023/12/14 02:12:18;;;;;;;4.88;2.65;;;;;;;;;;10614755;27;20062;-73
2023/12/14 02:17:22;;;;;;;3.92;2.10;;;;;;;;;;10607060;27;20038;-73
2023/12/14 02:22:25;;;;;;;3.33;1.90;;;;;;;;;;10601761;27;20039;-73
2023/12/14 02:27:29;;;;;;;3.38;1.90;;;;;;;;;;10608898;27;20495;-72
2023/12/14 02:32:33;;;;;;;3.47;1.60;;;;;;;;;;10602366;27;20036;-73
2023/12/14 02:37:37;;;;;;;3.28;1.73;;;;;;;;;;10604702;27;20043;-73
2023/12/14 02:42:42;;;;;;;4.22;1.88;;;;;;;;;;10606586;27;20119;-73
2023/12/14 02:47:47;;;;;;;3.22;1.90;;;;;;;;;;10593154;27;20043;-72
2023/12/14 02:52:50;;;;;;;2.92;1.77;;;;;;;;;;10607998;27;20050;-73
2023/12/14 02:57:55;;;;;;;3.20;1.90;;;;;;;;;;10596176;27;20035;-73
2023/12/14 03:02:58;;;;;;;2.72;1.83;;;;;;;;;;10605320;27;20027;-73
2023/12/14 03:08:02;;;;;;;2.63;1.80;;;;;;;;;;10604049;27;20053;-72
2023/12/14 03:13:06;;;;;;;4.90;1.70;;;;;;;;;;10605199;27;20077;-73
2023/12/14 03:18:09;;;;;;;3.35;1.83;;;;;;;;;;10602451;27;20396;-73
2023/12/14 03:23:13;;;;;;;3.63;1.65;;;;;;;;;;10605869;27;20079;-73
2023/12/14 03:28:18;;;;;;;1.95;1.52;;;;;;;;;;10603253;27;20150;-73
2023/12/14 03:33:22;;;;;;;3.60;1.80;;;;;;;;;;10604950;27;20039;-73
2023/12/14 03:38:25;;;;;;;2.17;1.77;;;;;;;;;;10594930;27;20043;-73
2023/12/14 03:43:29;;;;;;;2.25;1.90;;;;;;;;;;10595676;27;20045;-73
2023/12/14 03:48:33;;;;;;;2.65;1.85;;;;;;;;;;10608602;27;20119;-73
2023/12/14 03:53:36;;;;;;;2.97;1.73;;;;;;;;;;10601141;27;20063;-73
2023/12/14 03:58:41;;;;;;;3.08;1.75;;;;;;;;;;10598740;27;20044;-73
2023/12/14 04:03:44;;;;;;;2.85;1.70;;;;;;;;;;10602047;27;20123;-73
2023/12/14 04:08:47;;;;;;;2.42;1.75;;;;;;;;;;10599789;27;20079;-73
2023/12/14 04:13:53;;;;;;;2.00;1.70;;;;;;;;;;10602119;27;20054;-73
2023/12/14 04:18:57;;;;;;;3.53;2.03;;;;;;;;;;10598062;27;20042;-73
2023/12/14 04:24:00;;;;;;;2.45;1.67;;;;;;;;;;10593119;27;20044;-73
2023/12/14 04:29:05;;;;;;;4.20;1.85;;;;;;;;;;10591023;27;20514;-73
2023/12/14 04:34:13;;;;;;;2.47;1.83;;;;;;;;;;10596181;27;20713;-73
2023/12/14 04:39:17;;;;;;;3.58;1.90;;;;;;;;;;10594725;27;20403;-73
2023/12/14 04:44:22;;;;;;;2.78;2.10;;;;;;;;;;10591347;28;20035;-73
2023/12/14 04:49:25;;;;;;;3.97;2.85;;;;;;;;;;10594725;28;20039;-73
2023/12/14 04:54:29;;;;;;;6.07;2.97;;;;;;;;;;10603987;28;20031;-73
2023/12/14 04:59:33;;;;;;;3.95;2.78;;;;;;;;;;10593302;28;20039;-73
2023/12/14 05:04:37;;;;;;;4.07;2.63;;;;;;;;;;10605337;28;20035;-73
2023/12/14 05:09:40;;;;;;;5.63;2.83;;;;;;;;;;10601958;27;20539;-73
2023/12/14 05:14:44;;;;;;;4.68;2.92;;;;;;;;;;10596647;27;20400;-73
2023/12/14 05:19:48;;;;;;;3.70;2.20;;;;;;;;;;10614505;27;20035;-73
2023/12/14 05:24:51;;;;;;;3.00;1.77;;;;;;;;;;10608224;27;20114;-73
2023/12/14 05:29:55;;;;;;;3.17;1.90;;;;;;;;;;10611941;27;20043;-73
2023/12/14 05:34:59;;;;;;;2.92;2.00;;;;;;;;;;10605784;27;20042;-73
2023/12/14 05:40:03;;;;;;;3.15;2.10;;;;;;;;;;10617078;27;20051;-73
2023/12/14 05:45:09;;;;;;;3.85;2.00;;;;;;;;;;10601942;27;20403;-73
2023/12/14 05:50:14;;;;;;;3.58;2.22;;;;;;;;;;10609288;27;20134;-73
2023/12/14 05:55:21;;;;;;;4.95;3.05;;;;;;;;;;10591791;27;20122;-73
2023/12/14 06:00:26;;;;;;;5.78;3.42;;;;;;;;;;10605812;27;20048;-73
2023/12/14 06:05:29;;;;;;;6.55;3.35;;;;;;;;;;10608317;27;20533;-73
2023/12/14 06:10:32;;;;;;;6.95;3.90;;;;;;;;;;10605086;27;20126;-73
2023/12/14 06:15:37;;;;;;;7.28;3.35;;;;;;;;;;10609522;27;20044;-73
2023/12/14 06:20:41;;;;;;;6.35;3.35;;;;;;;;;;10595225;27;20051;-73
2023/12/14 06:25:44;;;;;;;6.55;3.08;;;;;;;;;;10606299;27;20438;-73
2023/12/14 06:30:49;;;;;;;4.13;2.88;;;;;;;;;;10621040;27;20053;-73
2023/12/14 06:35:52;;;;;;;6.25;3.00;;;;;;;;;;10610599;27;20074;-73
2023/12/14 06:40:55;;;;;;;6.30;2.83;;;;;;;;;;10616492;27;20063;-73
2023/12/14 06:46:00;;;;;;;6.53;2.53;;;;;;;;;;10613406;27;20046;-73
2023/12/14 06:51:03;;;;;;;12.48;3.30;;;;;;;;;;10605885;27;20058;-73
2023/12/14 06:56:09;;;;;;;14.82;4.40;;;;;;;;;;10600091;27;20051;-73
2023/12/14 07:01:15;;;;;;;15.00;4.55;;;;;;;;;;10599132;27;20387;-73
2023/12/14 07:06:20;;;;;;;13.02;3.38;;;;;;;;;;10603817;27;20039;-73
2023/12/14 07:11:24;;;;;;;8.35;3.90;;;;;;;;;;10603910;27;20529;-73
2023/12/14 07:16:28;;;;;;;11.63;3.83;;;;;;;;;;10598083;27;20407;-74
2023/12/14 07:21:32;;;;;;;11.73;4.97;;;;;;;;;;10603943;27;20466;-73
2023/12/14 07:26:35;;;;;;;11.50;4.25;;;;;;;;;;10600375;27;20479;-74
2023/12/14 07:31:40;;;;;;;12.98;4.30;;;;;;;;;;10596375;27;20035;-74
2023/12/14 07:36:43;;;;;;;7.97;3.83;;;;;;;;;;10592723;27;20488;-74
2023/12/14 07:41:47;;;;;;;14.13;4.43;;;;;;;;;;10592879;27;20040;-74
2023/12/14 07:46:51;;;;;;;11.63;5.05;;;;;;;;;;10604916;27;20043;-73
2023/12/14 07:51:54;;;;;;;18.42;5.57;;;;;;;;;;10585842;27;20507;-74
2023/12/14 07:56:58;;;;;;;15.38;5.40;;;;;;;;;;10604968;27;20054;-74
2023/12/14 08:02:02;;;;;;;15.85;6.15;;;;;;;;;;10603086;27;20039;-74
2023/12/14 08:07:06;;;;;;;11.60;5.13;;;;;;;;;;10584252;27;20120;-74
2023/12/14 08:12:09;;;;;;;26.13;13.65;;;;;;;;;;10607197;27;20123;-74
2023/12/14 08:17:14;;;;;;;21.60;15.40;;;;;;;;;;10611429;27;20868;-74
2023/12/14 08:22:17;;;;;;;15.68;10.70;;;;;;;;;;10614072;27;20071;-74
2023/12/14 08:27:20;;;;;;;14.18;9.88;;;;;;;;;;10611235;27;20042;-74
2023/12/14 08:32:25;;;;;;;19.52;15.10;;;;;;;;;;10606421;27;20046;-74
2023/12/14 08:37:28;;;;;;;18.45;11.63;;;;;;;;;;10611008;27;20045;-74
2023/12/14 08:42:32;;;;;;;12.43;7.53;;;;;;;;;;10610837;27;20035;-74
2023/12/14 08:47:36;;;;;;;13.68;9.25;;;;;;;;;;10604632;28;20062;-74
2023/12/14 08:52:40;;;;;;;16.23;10.45;;;;;;;;;;10603897;27;20035;-74
2023/12/14 08:57:43;;;;;;;10.00;7.38;;;;;;;;;;10590889;27;20052;-74
2023/12/14 09:02:48;;;;;;;10.13;6.85;;;;;;;;;;10606651;27;20034;-73
2023/12/14 09:07:54;;;;;;;12.57;8.35;;;;;;;;;;10607373;27;20138;-74
2023/12/14 09:12:58;;;;;;;17.13;10.13;;;;;;;;;;10608912;27;20072;-73
2023/12/14 09:18:02;;;;;;;13.13;8.82;;;;;;;;;;10606753;27;20143;-74
2023/12/14 09:23:06;;;;;;;22.55;13.10;;;;;;;;;;10604949;27;20062;-74
2023/12/14 09:28:09;;;;;;;20.00;12.38;;;;;;;;;;10601871;27;20046;-74
2023/12/14 09:33:14;;;;;;;25.73;14.13;;;;;;;;;;10590744;27;20039;-74
2023/12/14 09:38:19;;;;;;;21.75;11.55;;;;;;;;;;10606135;27;20035;-74
2023/12/14 09:43:23;;;;;;;20.95;12.32;;;;;;;;;;10609849;27;20475;-74
2023/12/14 09:48:30;;;;;;;26.77;14.90;;;;;;;;;;10603534;27;20039;-74
2023/12/14 09:53:33;;;;;;;24.17;14.50;;;;;;;;;;10599190;27;21232;-74
2023/12/14 09:58:36;;;;;;;19.70;11.77;;;;;;;;;;10580434;27;20039;-74
2023/12/14 10:03:41;;;;;;;18.15;10.77;;;;;;;;;;10616867;27;20034;-74
2023/12/14 10:08:56;;;;;;;18.15;10.82;;;;;;;;;;10616409;27;20035;-74
2023/12/14 10:13:59;;;;;;;17.52;10.70;;;;;;;;;;10604476;27;20524;-74
2023/12/14 10:19:04;;;;;;;18.45;12.00;;;;;;;;;;10601216;27;20130;-74
2023/12/14 10:24:07;;;;;;;14.82;9.38;;;;;;;;;;10596293;27;20039;-74
2023/12/14 10:29:15;;;;;;;13.07;8.38;;;;;;;;;;10602826;27;20047;-74
2023/12/14 10:34:21;;;;;;;9.15;6.57;;;;;;;;;;10617479;27;20047;-74
2023/12/14 10:39:24;;;;;;;11.43;7.15;;;;;;;;;;10579846;27;20113;-74
2023/12/14 10:44:29;;;;;;;10.40;6.78;;;;;;;;;;10610809;27;20080;-74
2023/12/14 10:49:38;;;;;;;12.00;7.38;;;;;;;;;;10598697;27;20043;-75
2023/12/14 10:54:42;;;;;;;13.43;7.43;;;;;;;;;;10603538;27;20399;-74
2023/12/14 10:59:45;;;;;;;10.98;6.72;;;;;;;;;;10599604;27;20073;-74
2023/12/14 11:04:58;;;;;;;11.98;7.30;;;;;;;;;;10586324;27;20034;-74
2023/12/14 11:10:01;;;;;;;10.10;6.32;;;;;;;;;;10600803;27;20468;-74
2023/12/14 11:15:07;;;;;;;12.18;7.10;;;;;;;;;;10605696;27;20389;-74
2023/12/14 11:25:41;;;;;;;15.73;8.75;;;;;;;;;;10522379;27;20375;-74
2023/12/14 11:30:47;;;;;;;10.30;6.40;;;;;;;;;;10479093;28;20041;-74
2023/12/14 11:35:54;;;;;;;10.65;6.53;;;;;;;;;;10474482;28;20045;-74
2023/12/14 11:40:59;;;;;;;11.30;6.65;;;;;;;;;;10468730;28;20045;-74
2023/12/14 11:46:02;;;;;;;10.73;5.93;;;;;;;;;;10474273;28;20406;-74
2023/12/14 11:51:06;;;;;;;10.15;6.05;;;;;;;;;;10474660;28;20064;-74
2023/12/14 11:56:11;;;;;;;7.72;5.03;;;;;;;;;;10433847;23;20503;-75
2023/12/14 12:01:16;;;;;;;6.70;4.25;;;;;;;;;;10356109;28;20046;-73
2023/12/14 12:06:24;;;;;;;6.53;4.13;;;;;;;;;;10356710;28;20124;-73
2023/12/14 12:11:28;;;;;;;7.28;3.90;;;;;;;;;;10356892;28;20130;-75
2023/12/14 12:16:32;;;;;;;5.70;3.72;;;;;;;;;;10355315;28;20116;-75
2023/12/14 12:21:35;;;;;;;6.05;3.67;;;;;;;;;;10353925;28;20046;-75
2023/12/14 12:26:39;;;;;;;7.25;4.60;;;;;;;;;;10355777;28;20050;-75
2023/12/14 12:31:44;;;;;;;7.28;4.03;;;;;;;;;;10356194;28;20053;-76
2023/12/14 12:36:48;;;;;;;6.25;3.80;;;;;;;;;;10337012;28;20555;-75
2023/12/14 12:41:52;;;;;;;4.07;2.75;;;;;;;;;;10328036;28;20030;-75
2023/12/14 12:46:58;;;;;;;4.18;2.70;;;;;;;;;;10328598;28;20050;-75
2023/12/14 12:52:04;;;;;;;4.25;3.20;;;;;;;;;;10323908;28;20124;-75
2023/12/14 12:57:09;;;;;;;4.43;2.83;;;;;;;;;;10326337;28;20137;-75
2023/12/14 13:02:12;;;;;;;4.38;2.72;;;;;;;;;;10330059;28;20056;-75
2023/12/14 13:07:16;;;;;;;4.30;3.15;;;;;;;;;;10334394;28;20063;-75
2023/12/14 13:12:20;;;;;;;5.72;3.47;;;;;;;;;;10329962;28;20034;-75
2023/12/14 13:17:24;;;;;;;4.72;3.22;;;;;;;;;;10326531;28;20088;-75
2023/12/14 13:22:27;;;;;;;4.68;2.90;;;;;;;;;;10332657;28;20117;-75
2023/12/14 13:27:36;;;;;;;3.75;2.50;;;;;;;;;;10326443;28;20057;-75
2023/12/14 13:32:39;;;;;;;2.97;2.33;;;;;;;;;;10325910;28;20046;-75
2023/12/14 13:37:42;;;;;;;3.80;2.53;;;;;;;;;;10327921;28;20042;-75
2023/12/14 13:42:47;;;;;;;4.55;3.20;;;;;;;;;;10342178;28;20034;-75
2023/12/14 13:47:52;;;;;;;5.75;4.03;;;;;;;;;;10336885;28;20657;-75
2023/12/14 13:52:55;;;;;;;4.32;3.22;;;;;;;;;;10335977;28;20046;-75
2023/12/14 13:58:01;;;;;;;7.47;4.90;;;;;;;;;;10335459;28;20140;-75
2023/12/14 14:03:04;;;;;;;4.07;2.97;;;;;;;;;;10339941;28;20548;-75
2023/12/14 14:08:08;;;;;;;5.43;3.90;;;;;;;;;;10327471;28;20416;-75
2023/12/14 14:13:15;;;;;;;7.38;4.97;;;;;;;;;;10336262;28;20050;-75
2023/12/14 14:18:18;;;;;;;7.53;4.80;;;;;;;;;;10330750;28;20041;-75
2023/12/14 14:23:21;;;;;;;7.20;4.63;;;;;;;;;;10329873;28;20126;-75
2023/12/14 14:28:26;;;;;;;8.50;5.53;;;;;;;;;;10330339;28;20129;-75
2023/12/14 14:33:29;;;;;;;6.57;4.97;;;;;;;;;;10333455;28;20046;-75
2023/12/14 14:38:32;;;;;;;7.88;5.25;;;;;;;;;;10331587;28;20518;-75
2023/12/14 14:43:37;;;;;;;7.63;4.57;;;;;;;;;;10327339;28;20042;-75
2023/12/14 14:48:41;;;;;;;8.27;5.03;;;;;;;;;;10325504;28;20665;-75
2023/12/14 14:53:44;;;;;;;8.25;5.70;;;;;;;;;;10326626;28;20068;-75
2023/12/14 14:58:49;;;;;;;5.53;3.83;;;;;;;;;;10328159;28;20129;-75
2023/12/14 15:03:52;;;;;;;7.00;4.63;;;;;;;;;;10326327;28;20491;-75
2023/12/14 15:08:55;;;;;;;5.85;4.10;;;;;;;;;;10323739;28;20081;-75
2023/12/14 15:14:00;;;;;;;6.25;4.45;;;;;;;;;;10317328;28;20049;-75
2023/12/14 15:19:04;;;;;;;8.23;4.55;;;;;;;;;;10323527;28;20129;-75
2023/12/14 15:24:07;;;;;;;7.88;5.00;;;;;;;;;;10325985;28;20105;-75
2023/12/14 15:29:12;;;;;;;5.97;4.00;;;;;;;;;;10326841;28;20062;-75
2023/12/14 15:34:18;;;;;;;7.18;4.90;;;;;;;;;;10323567;28;20131;-75
2023/12/14 15:39:21;;;;;;;7.50;5.07;;;;;;;;;;10322730;28;20073;-75
2023/12/14 15:44:26;;;;;;;6.85;4.75;;;;;;;;;;10329741;28;20305;-75
2023/12/14 15:49:29;;;;;;;7.05;5.05;;;;;;;;;;10329617;28;20034;-75
2023/12/14 15:54:32;;;;;;;4.20;3.75;;;;;;;;;;10323029;28;20402;-75
2023/12/14 15:59:37;;;;;;;4.72;3.70;;;;;;;;;;10332334;28;20077;-75
2023/12/14 16:04:40;;;;;;;4.20;3.00;;;;;;;;;;10328144;28;20514;-75
2023/12/14 16:09:44;;;;;;;6.03;3.97;;;;;;;;;;10333113;28;20129;-75
2023/12/14 16:14:48;;;;;;;7.03;4.20;;;;;;;;;;10336663;28;20034;-75
2023/12/14 16:19:52;;;;;;;5.55;3.95;;;;;;;;;;10337673;28;20486;-75
2023/12/14 16:24:55;;;;;;;5.95;4.43;;;;;;;;;;10335159;28;20034;-75
2023/12/14 16:29:59;;;;;;;5.95;4.13;;;;;;;;;;10334550;28;20046;-75
2023/12/14 16:35:03;;;;;;;5.05;3.30;;;;;;;;;;10330522;28;20418;-75
2023/12/14 16:40:08;;;;;;;9.07;4.22;;;;;;;;;;10324891;28;20070;-75
2023/12/14 16:45:13;;;;;;;7.25;5.32;;;;;;;;;;10329380;28;20034;-75
2023/12/14 16:50:16;;;;;;;9.02;6.25;;;;;;;;;;10335874;28;20031;-75
2023/12/14 16:55:20;;;;;;;12.95;7.78;;;;;;;;;;10328180;28;20042;-75
2023/12/14 17:00:24;;;;;;;14.93;8.93;;;;;;;;;;10329252;28;20042;-75
2023/12/14 17:05:28;;;;;;;14.48;9.30;;;;;;;;;;10324592;28;20039;-75
2023/12/14 17:10:31;;;;;;;9.43;5.38;;;;;;;;;;10325281;28;20053;-75
2023/12/14 17:15:36;;;;;;;6.35;4.63;;;;;;;;;;10326450;28;20484;-75
2023/12/14 17:20:39;;;;;;;8.93;5.85;;;;;;;;;;10332798;28;20030;-75
2023/12/14 17:25:43;;;;;;;9.15;6.50;;;;;;;;;;10331817;28;20559;-75
2023/12/14 17:30:48;;;;;;;7.53;5.07;;;;;;;;;;10331365;28;20046;-75
2023/12/14 17:35:51;;;;;;;7.28;5.60;;;;;;;;;;10332237;28;20551;-76
2023/12/14 17:40:54;;;;;;;8.88;6.30;;;;;;;;;;10337333;28;20720;-75
2023/12/14 17:45:59;;;;;;;7.47;5.22;;;;;;;;;;10329246;28;20042;-75
2023/12/14 17:51:03;;;;;;;6.45;5.28;;;;;;;;;;10323202;28;20427;-75
2023/12/14 17:56:07;;;;;;;5.50;4.18;;;;;;;;;;10335153;28;20517;-75
2023/12/14 18:01:12;;;;;;;7.20;5.22;;;;;;;;;;10330518;28;20099;-75
2023/12/14 18:06:16;;;;;;;7.03;5.28;;;;;;;;;;10338970;28;20129;-75
2023/12/14 18:11:19;;;;;;;12.77;7.82;;;;;;;;;;10330424;28;20046;-75
2023/12/14 18:16:24;;;;;;;6.88;5.18;;;;;;;;;;10327729;28;20042;-75
2023/12/14 18:21:27;;;;;;;10.73;6.90;;;;;;;;;;10331483;28;20076;-75
2023/12/14 18:26:31;;;;;;;7.88;5.53;;;;;;;;;;10328119;28;20502;-75
2023/12/14 18:31:37;;;;;;;10.75;7.47;;;;;;;;;;10331649;28;20056;-75
2023/12/14 18:36:41;;;;;;;7.32;5.07;;;;;;;;;;10325752;28;20046;-75
2023/12/14 18:41:44;;;;;;;12.82;7.97;;;;;;;;;;10326323;28;20415;-75
2023/12/14 18:46:48;;;;;;;10.40;7.13;;;;;;;;;;10330728;28;20049;-75
2023/12/14 18:51:52;;;;;;;15.50;9.68;;;;;;;;;;10321088;28;20046;-75
2023/12/14 18:56:55;;;;;;;12.88;8.38;;;;;;;;;;10330011;28;20459;-75
2023/12/14 19:02:00;;;;;;;15.02;9.52;;;;;;;;;;10331579;28;20042;-75
2023/12/14 19:07:03;;;;;;;13.27;9.82;;;;;;;;;;10329549;28;20042;-75
2023/12/14 19:12:07;;;;;;;24.75;19.35;;;;;;;;;;10325171;28;20038;-75
2023/12/14 19:17:12;;;;;;;20.67;15.82;;;;;;;;;;10334893;28;20109;-75
2023/12/14 19:22:15;;;;;;;18.42;13.77;;;;;;;;;;10328179;28;20070;-75
2023/12/14 19:27:18;;;;;;;19.88;12.60;;;;;;;;;;10328966;28;20623;-75
2023/12/14 19:32:23;;;;;;;20.55;13.88;;;;;;;;;;10328241;28;20508;-75
2023/12/14 19:37:26;;;;;;;27.30;16.05;;;;;;;;;;10326185;28;20088;-75
2023/12/14 19:42:30;;;;;;;17.65;12.43;;;;;;;;;;10329306;28;20048;-75
2023/12/14 19:47:39;;;;;;;16.25;11.13;;;;;;;;;;10337433;28;20036;-75
2023/12/14 19:52:42;;;;;;;16.23;11.73;;;;;;;;;;10331495;28;20042;-75
2023/12/14 19:57:49;;;;;;;15.55;11.18;;;;;;;;;;10335134;28;20117;-75
2023/12/14 20:02:54;;;;;;;18.85;12.80;;;;;;;;;;10339158;28;20133;-75
2023/12/14 20:07:57;;;;;;;18.23;12.02;;;;;;;;;;10325900;28;20035;-75
2023/12/14 20:13:00;;;;;;;13.30;8.80;;;;;;;;;;10329890;28;20138;-75
2023/12/14 20:18:06;;;;;;;16.38;10.95;;;;;;;;;;10329525;28;20034;-75
2023/12/14 20:23:09;;;;;;;19.50;12.53;;;;;;;;;;10327903;28;20053;-75
2023/12/14 20:28:12;;;;;;;14.48;10.73;;;;;;;;;;10329526;28;20516;-75
2023/12/14 20:33:17;;;;;;;16.42;10.95;;;;;;;;;;10286771;28;20049;-74
2023/12/14 20:38:20;;;;;;;13.73;9.73;;;;;;;;;;10275972;28;20058;-75
2023/12/14 20:43:24;;;;;;;11.25;7.93;;;;;;;;;;10272210;28;20047;-75
2023/12/14 20:48:28;;;;;;;10.52;7.53;;;;;;;;;;10279350;28;20051;-75
2023/12/14 20:53:32;;;;;;;12.88;9.10;;;;;;;;;;10276053;28;20130;-75
2023/12/14 20:58:35;;;;;;;11.82;8.07;;;;;;;;;;10277799;28;20050;-73
2023/12/14 21:03:42;;;;;;;12.35;8.38;;;;;;;;;;10270954;28;20046;-73
2023/12/14 21:08:45;;;;;;;12.27;8.10;;;;;;;;;;10272405;28;20202;-72
2023/12/14 21:13:48;;;;;;;15.63;8.68;;;;;;;;;;10282588;28;20074;-73
2023/12/14 21:18:53;;;;;;;14.43;9.20;;;;;;;;;;10267816;28;20142;-73
2023/12/14 21:23:57;;;;;;;14.18;9.00;;;;;;;;;;10274228;28;20058;-73
2023/12/14 21:29:00;;;;;;;11.10;7.70;;;;;;;;;;10278744;28;20635;-73
2023/12/14 21:34:05;;;;;;;13.05;8.80;;;;;;;;;;10281099;28;20125;-73
2023/12/14 21:39:10;;;;;;;11.38;7.85;;;;;;;;;;10277701;28;20043;-73
2023/12/14 21:44:13;;;;;;;12.05;8.10;;;;;;;;;;10280945;28;20050;-73
2023/12/14 21:49:19;;;;;;;10.48;7.28;;;;;;;;;;10278951;28;20134;-72
2023/12/14 21:54:23;;;;;;;9.70;6.85;;;;;;;;;;10274523;28;20162;-73
2023/12/14 21:59:26;;;;;;;10.40;7.15;;;;;;;;;;10278048;28;20463;-73
2023/12/14 22:04:31;;;;;;;11.52;7.25;;;;;;;;;;10279188;28;20511;-73
2023/12/14 22:09:34;;;;;;;9.43;6.45;;;;;;;;;;10275474;28;20556;-73
2023/12/14 22:14:37;;;;;;;12.23;7.50;;;;;;;;;;10274251;28;20061;-73
2023/12/14 22:19:42;;;;;;;9.18;6.53;;;;;;;;;;10272096;28;20039;-72
2023/12/14 22:24:45;;;;;;;8.90;6.60;;;;;;;;;;10285956;28;20049;-72
2023/12/14 22:29:48;;;;;;;10.30;7.20;;;;;;;;;;10275734;28;20047;-73
2023/12/14 22:34:53;;;;;;;9.35;6.45;;;;;;;;;;10268748;28;20074;-72
2023/12/14 22:39:56;;;;;;;8.35;5.97;;;;;;;;;;10267041;28;20058;-74
2023/12/14 22:44:59;;;;;;;8.73;6.20;;;;;;;;;;10271682;28;20532;-74
2023/12/14 22:50:05;;;;;;;9.38;6.22;;;;;;;;;;10266338;28;20055;-74
2023/12/14 22:55:11;;;;;;;8.88;6.18;;;;;;;;;;10260205;28;20054;-74
2023/12/14 23:00:21;;;;;;;9.38;6.35;;;;;;;;;;10267178;28;20174;-74
2023/12/14 23:05:26;;;;;;;12.15;7.72;;;;;;;;;;10272206;28;20045;-75
2023/12/14 23:10:29;;;;;;;12.43;7.90;;;;;;;;;;10270732;28;20038;-74
2023/12/14 23:15:32;;;;;;;11.40;8.35;;;;;;;;;;10269473;28;20053;-75
2023/12/14 23:20:37;;;;;;;11.02;6.80;;;;;;;;;;10272248;28;20039;-74
2023/12/14 23:25:40;;;;;;;12.77;8.27;;;;;;;;;;10276832;28;20409;-75
2023/12/14 23:30:43;;;;;;;12.60;7.78;;;;;;;;;;10269334;28;20049;-74
2023/12/14 23:35:48;;;;;;;12.38;8.27;;;;;;;;;;10260534;28;20047;-75
2023/12/14 23:40:52;;;;;;;12.63;7.87;;;;;;;;;;10277072;28;20055;-74
2023/12/14 23:45:55;;;;;;;9.05;6.38;;;;;;;;;;10275206;28;20568;-74
2023/12/14 23:51:00;;;;;;;9.52;6.97;;;;;;;;;;10276140;28;20076;-74
2023/12/14 23:56:03;;;;;;;9.95;6.72;;;;;;;;;;10257939;28;20058;-75
